sensor_id;sensor_type;location;lat;lon;timestamp;pressure;altitude;pressure_sealevel;temperature;humidity
32067;BME280;18573;47.890;35.066;2022-12-19T00:00:05;102132.80;;;-2.38;100.00
32067;BME280;18573;47.890;35.066;2022-12-19T00:02:36;102124.51;;;-2.23;100.00
32067;BME280;18573;47.890;35.066;2022-12-19T00:05:06;102124.51;;;-2.23;100.00
32067;BME280;18573;47.890;35.066;2022-12-19T00:07:35;102130.02;;;-2.21;100.00
32067;BME280;18573;47.890;35.066;2022-12-19T00:10:05;102145.63;;;-2.26;100.00
32067;BME280;18573;47.890;35.066;2022-12-19T00:12:34;102145.60;;;-2.11;100.00
32067;BME280;18573;47.890;35.066;2022-12-19T00:15:04;102143.05;;;-2.12;100.00
32067;BME280;18573;47.890;35.066;2022-12-19T00:17:33;102137.94;;;-2.07;100.00
32067;BME280;18573;47.890;35.066;2022-12-19T00:20:04;102149.93;;;-2.02;100.00
32067;BME280;18573;47.890;35.066;2022-12-19T00:22:33;102147.01;;;-2.05;100.00
32067;BME280;18573;47.890;35.066;2022-12-19T00:25:02;102149.83;;;-1.94;100.00
32067;BME280;18573;47.890;35.066;2022-12-19T00:27:35;102152.17;;;-1.89;100.00
32067;BME280;18573;47.890;35.066;2022-12-19T00:30:05;102152.17;;;-1.89;100.00
32067;BME280;18573;47.890;35.066;2022-12-19T00:32:34;102142.84;;;-1.93;100.00
32067;BME280;18573;47.890;35.066;2022-12-19T00:35:06;102149.09;;;-1.96;100.00
32067;BME280;18573;47.890;35.066;2022-12-19T00:37:35;102164.64;;;-1.93;100.00
32067;BME280;18573;47.890;35.066;2022-12-19T00:40:07;102164.64;;;-1.93;100.00
32067;BME280;18573;47.890;35.066;2022-12-19T00:42:36;102146.88;;;-2.18;100.00
32067;BME280;18573;47.890;35.066;2022-12-19T00:45:05;102154.00;;;-2.13;100.00
32067;BME280;18573;47.890;35.066;2022-12-19T00:47:34;102147.95;;;-1.99;100.00
32067;BME280;18573;47.890;35.066;2022-12-19T00:50:04;102154.70;;;-2.32;100.00
32067;BME280;18573;47.890;35.066;2022-12-19T00:52:33;102140.16;;;-2.08;100.00
32067;BME280;18573;47.890;35.066;2022-12-19T00:55:02;102140.16;;;-2.08;100.00
32067;BME280;18573;47.890;35.066;2022-12-19T00:57:32;102153.93;;;-2.11;100.00
32067;BME280;18573;47.890;35.066;2022-12-19T01:00:02;102153.93;;;-2.11;100.00
32067;BME280;18573;47.890;35.066;2022-12-19T01:02:31;102144.38;;;-2.42;100.00
32067;BME280;18573;47.890;35.066;2022-12-19T01:05:01;102153.14;;;-2.43;100.00
32067;BME280;18573;47.890;35.066;2022-12-19T01:07:30;102156.95;;;-2.49;100.00
32067;BME280;18573;47.890;35.066;2022-12-19T01:09:59;102156.95;;;-2.49;100.00
32067;BME280;18573;47.890;35.066;2022-12-19T01:12:27;102158.52;;;-2.38;100.00
32067;BME280;18573;47.890;35.066;2022-12-19T01:15:17;102158.52;;;-2.38;100.00
32067;BME280;18573;47.890;35.066;2022-12-19T01:17:50;102150.61;;;-2.52;100.00
32067;BME280;18573;47.890;35.066;2022-12-19T01:20:21;102144.11;;;-2.61;100.00
32067;BME280;18573;47.890;35.066;2022-12-19T01:22:51;102144.11;;;-2.61;100.00
32067;BME280;18573;47.890;35.066;2022-12-19T01:25:20;102153.33;;;-2.69;100.00
32067;BME280;18573;47.890;35.066;2022-12-19T01:27:49;102149.30;;;-2.68;100.00
32067;BME280;18573;47.890;35.066;2022-12-19T01:30:20;102147.51;;;-2.74;100.00
32067;BME280;18573;47.890;35.066;2022-12-19T01:32:49;102147.51;;;-2.74;100.00
32067;BME280;18573;47.890;35.066;2022-12-19T01:35:18;102139.08;;;-2.88;100.00
32067;BME280;18573;47.890;35.066;2022-12-19T01:37:52;102139.08;;;-2.88;100.00
32067;BME280;18573;47.890;35.066;2022-12-19T01:40:23;102149.98;;;-2.80;100.00
32067;BME280;18573;47.890;35.066;2022-12-19T01:42:53;102148.59;;;-2.94;100.00
32067;BME280;18573;47.890;35.066;2022-12-19T01:45:25;102141.84;;;-2.83;100.00
32067;BME280;18573;47.890;35.066;2022-12-19T01:48:02;102135.05;;;-2.78;100.00
32067;BME280;18573;47.890;35.066;2022-12-19T01:53:16;102135.47;;;-2.86;100.00
32067;BME280;18573;47.890;35.066;2022-12-19T01:55:45;102146.71;;;-2.84;100.00
32067;BME280;18573;47.890;35.066;2022-12-19T01:58:14;102145.00;;;-2.85;100.00
32067;BME280;18573;47.890;35.066;2022-12-19T02:00:44;102152.83;;;-2.92;100.00
32067;BME280;18573;47.890;35.066;2022-12-19T02:03:20;102149.53;;;-2.95;100.00
32067;BME280;18573;47.890;35.066;2022-12-19T02:05:49;102149.38;;;-2.92;100.00
32067;BME280;18573;47.890;35.066;2022-12-19T02:08:19;102152.55;;;-2.71;100.00
32067;BME280;18573;47.890;35.066;2022-12-19T02:10:49;102162.97;;;-2.63;100.00
32067;BME280;18573;47.890;35.066;2022-12-19T02:13:19;102164.55;;;-2.44;100.00
32067;BME280;18573;47.890;35.066;2022-12-19T02:16:08;102161.87;;;-2.36;100.00
32067;BME280;18573;47.890;35.066;2022-12-19T02:27:24;102188.26;;;-2.16;100.00
32067;BME280;18573;47.890;35.066;2022-12-19T02:35:11;102191.15;;;-2.13;100.00
32067;BME280;18573;47.890;35.066;2022-12-19T02:37:48;102181.84;;;-1.96;100.00
32067;BME280;18573;47.890;35.066;2022-12-19T02:40:20;102181.88;;;-2.12;100.00
32067;BME280;18573;47.890;35.066;2022-12-19T02:42:46;102181.88;;;-2.12;100.00
32067;BME280;18573;47.890;35.066;2022-12-19T02:45:17;102192.70;;;-2.02;100.00
32067;BME280;18573;47.890;35.066;2022-12-19T02:47:49;102187.83;;;-2.01;100.00
32067;BME280;18573;47.890;35.066;2022-12-19T02:50:18;102180.03;;;-2.10;100.00
32067;BME280;18573;47.890;35.066;2022-12-19T02:52:48;102192.30;;;-2.03;100.00
32067;BME280;18573;47.890;35.066;2022-12-19T02:55:22;102196.63;;;-1.95;100.00
32067;BME280;18573;47.890;35.066;2022-12-19T02:58:07;102205.91;;;-1.96;100.00
32067;BME280;18573;47.890;35.066;2022-12-19T03:00:36;102202.81;;;-1.96;100.00
32067;BME280;18573;47.890;35.066;2022-12-19T03:06:31;102197.70;;;-1.83;100.00
32067;BME280;18573;47.890;35.066;2022-12-19T03:09:08;102197.70;;;-1.83;100.00
32067;BME280;18573;47.890;35.066;2022-12-19T03:11:38;102201.09;;;-1.74;100.00
32067;BME280;18573;47.890;35.066;2022-12-19T03:14:14;102217.44;;;-1.85;100.00
32067;BME280;18573;47.890;35.066;2022-12-19T03:16:44;102221.03;;;-1.79;100.00
32067;BME280;18573;47.890;35.066;2022-12-19T03:19:14;102218.78;;;-1.77;100.00
32067;BME280;18573;47.890;35.066;2022-12-19T03:21:50;102224.98;;;-1.64;100.00
32067;BME280;18573;47.890;35.066;2022-12-19T03:24:16;102224.98;;;-1.64;100.00
32067;BME280;18573;47.890;35.066;2022-12-19T03:27:34;102223.28;;;-1.80;100.00
32067;BME280;18573;47.890;35.066;2022-12-19T03:29:33;102218.11;;;-1.81;100.00
32067;BME280;18573;47.890;35.066;2022-12-19T03:32:04;102216.73;;;-1.72;100.00
32067;BME280;18573;47.890;35.066;2022-12-19T03:34:54;102216.73;;;-1.72;100.00
32067;BME280;18573;47.890;35.066;2022-12-19T03:37:20;102234.58;;;-1.86;100.00
32067;BME280;18573;47.890;35.066;2022-12-19T03:39:58;102241.09;;;-1.70;100.00
32067;BME280;18573;47.890;35.066;2022-12-19T03:42:24;102269.33;;;-1.83;100.00
32067;BME280;18573;47.890;35.066;2022-12-19T03:45:15;102269.33;;;-1.83;100.00
32067;BME280;18573;47.890;35.066;2022-12-19T03:47:47;102273.94;;;-1.79;100.00
32067;BME280;18573;47.890;35.066;2022-12-19T03:50:18;102271.14;;;-1.69;100.00
32067;BME280;18573;47.890;35.066;2022-12-19T03:53:10;102271.14;;;-1.69;100.00
32067;BME280;18573;47.890;35.066;2022-12-19T03:55:48;102276.39;;;-1.69;100.00
32067;BME280;18573;47.890;35.066;2022-12-19T03:58:20;102287.98;;;-1.80;100.00
32067;BME280;18573;47.890;35.066;2022-12-19T04:00:50;102280.95;;;-1.80;100.00
32067;BME280;18573;47.890;35.066;2022-12-19T04:03:20;102279.91;;;-1.77;100.00
32067;BME280;18573;47.890;35.066;2022-12-19T04:05:50;102279.91;;;-1.77;100.00
32067;BME280;18573;47.890;35.066;2022-12-19T04:08:21;102295.17;;;-1.84;100.00
32067;BME280;18573;47.890;35.066;2022-12-19T04:10:58;102295.91;;;-1.82;100.00
32067;BME280;18573;47.890;35.066;2022-12-19T04:13:31;102303.88;;;-1.76;100.00
32067;BME280;18573;47.890;35.066;2022-12-19T04:16:06;102306.71;;;-1.72;100.00
32067;BME280;18573;47.890;35.066;2022-12-19T04:18:36;102306.71;;;-1.72;100.00
32067;BME280;18573;47.890;35.066;2022-12-19T04:21:12;102314.20;;;-1.73;100.00
32067;BME280;18573;47.890;35.066;2022-12-19T04:23:44;102314.20;;;-1.73;100.00
32067;BME280;18573;47.890;35.066;2022-12-19T04:26:13;102332.08;;;-1.80;100.00
32067;BME280;18573;47.890;35.066;2022-12-19T04:28:55;102328.09;;;-1.87;100.00
32067;BME280;18573;47.890;35.066;2022-12-19T04:31:24;102332.39;;;-1.93;100.00
32067;BME280;18573;47.890;35.066;2022-12-19T04:33:54;102332.64;;;-2.13;100.00
32067;BME280;18573;47.890;35.066;2022-12-19T04:36:24;102332.64;;;-2.13;100.00
32067;BME280;18573;47.890;35.066;2022-12-19T04:38:53;102346.55;;;-2.20;100.00
32067;BME280;18573;47.890;35.066;2022-12-19T04:41:22;102357.25;;;-2.16;100.00
32067;BME280;18573;47.890;35.066;2022-12-19T04:43:51;102354.59;;;-2.07;100.00
32067;BME280;18573;47.890;35.066;2022-12-19T04:46:20;102354.59;;;-2.07;100.00
32067;BME280;18573;47.890;35.066;2022-12-19T04:48:49;102372.53;;;-2.48;100.00
32067;BME280;18573;47.890;35.066;2022-12-19T04:51:18;102375.28;;;-2.18;100.00
32067;BME280;18573;47.890;35.066;2022-12-19T04:53:48;102370.64;;;-2.29;100.00
32067;BME280;18573;47.890;35.066;2022-12-19T04:56:17;102386.04;;;-2.32;100.00
32067;BME280;18573;47.890;35.066;2022-12-19T04:58:46;102384.09;;;-2.52;100.00
32067;BME280;18573;47.890;35.066;2022-12-19T05:01:15;102380.36;;;-2.64;100.00
32067;BME280;18573;47.890;35.066;2022-12-19T05:03:45;102369.01;;;-2.47;100.00
32067;BME280;18573;47.890;35.066;2022-12-19T05:06:16;102381.88;;;-2.51;100.00
32067;BME280;18573;47.890;35.066;2022-12-19T05:08:45;102381.88;;;-2.51;100.00
32067;BME280;18573;47.890;35.066;2022-12-19T05:11:16;102382.42;;;-2.62;100.00
32067;BME280;18573;47.890;35.066;2022-12-19T05:13:47;102384.76;;;-2.65;100.00
32067;BME280;18573;47.890;35.066;2022-12-19T05:16:17;102386.55;;;-2.83;100.00
32067;BME280;18573;47.890;35.066;2022-12-19T05:18:46;102405.71;;;-2.73;100.00
32067;BME280;18573;47.890;35.066;2022-12-19T05:21:15;102405.71;;;-2.73;100.00
32067;BME280;18573;47.890;35.066;2022-12-19T05:23:44;102406.48;;;-2.89;100.00
32067;BME280;18573;47.890;35.066;2022-12-19T05:26:13;102418.95;;;-2.85;100.00
32067;BME280;18573;47.890;35.066;2022-12-19T05:28:42;102418.95;;;-2.85;100.00
32067;BME280;18573;47.890;35.066;2022-12-19T05:31:14;102421.50;;;-3.18;100.00
32067;BME280;18573;47.890;35.066;2022-12-19T05:33:44;102428.75;;;-3.06;100.00
32067;BME280;18573;47.890;35.066;2022-12-19T05:36:14;102444.27;;;-3.12;100.00
32067;BME280;18573;47.890;35.066;2022-12-19T05:38:44;102429.66;;;-2.90;100.00
32067;BME280;18573;47.890;35.066;2022-12-19T05:41:16;102429.66;;;-2.90;100.00
32067;BME280;18573;47.890;35.066;2022-12-19T05:43:48;102438.48;;;-2.75;100.00
32067;BME280;18573;47.890;35.066;2022-12-19T05:46:16;102438.48;;;-2.75;100.00
32067;BME280;18573;47.890;35.066;2022-12-19T05:48:46;102440.03;;;-2.80;100.00
32067;BME280;18573;47.890;35.066;2022-12-19T05:51:16;102436.52;;;-2.78;100.00
32067;BME280;18573;47.890;35.066;2022-12-19T05:53:46;102444.19;;;-2.84;100.00
32067;BME280;18573;47.890;35.066;2022-12-19T05:56:18;102446.81;;;-2.75;100.00
32067;BME280;18573;47.890;35.066;2022-12-19T05:58:48;102446.81;;;-2.75;100.00
32067;BME280;18573;47.890;35.066;2022-12-19T06:01:19;102440.52;;;-3.06;100.00
32067;BME280;18573;47.890;35.066;2022-12-19T06:03:49;102445.20;;;-3.04;100.00
32067;BME280;18573;47.890;35.066;2022-12-19T06:06:21;102445.20;;;-3.04;100.00
32067;BME280;18573;47.890;35.066;2022-12-19T06:08:55;102454.04;;;-3.07;100.00
32067;BME280;18573;47.890;35.066;2022-12-19T06:11:25;102459.84;;;-2.83;100.00
32067;BME280;18573;47.890;35.066;2022-12-19T06:13:55;102462.84;;;-2.82;100.00
32067;BME280;18573;47.890;35.066;2022-12-19T06:16:24;102459.84;;;-2.83;100.00
32067;BME280;18573;47.890;35.066;2022-12-19T06:18:53;102459.84;;;-2.83;100.00
32067;BME280;18573;47.890;35.066;2022-12-19T06:21:22;102475.76;;;-3.04;100.00
32067;BME280;18573;47.890;35.066;2022-12-19T06:23:51;102478.99;;;-2.99;100.00
32067;BME280;18573;47.890;35.066;2022-12-19T06:26:21;102478.99;;;-2.99;100.00
32067;BME280;18573;47.890;35.066;2022-12-19T06:28:51;102476.77;;;-2.72;100.00
32067;BME280;18573;47.890;35.066;2022-12-19T06:31:22;102476.77;;;-2.72;100.00
32067;BME280;18573;47.890;35.066;2022-12-19T06:33:53;102478.92;;;-2.63;100.00
32067;BME280;18573;47.890;35.066;2022-12-19T06:36:24;102478.92;;;-2.63;100.00
32067;BME280;18573;47.890;35.066;2022-12-19T06:38:57;102501.89;;;-2.18;100.00
32067;BME280;18573;47.890;35.066;2022-12-19T06:41:26;102501.89;;;-2.18;100.00
32067;BME280;18573;47.890;35.066;2022-12-19T06:44:15;102497.16;;;-2.62;100.00
32067;BME280;18573;47.890;35.066;2022-12-19T06:46:44;102504.95;;;-2.51;100.00
32067;BME280;18573;47.890;35.066;2022-12-19T06:49:13;102504.95;;;-2.51;100.00
32067;BME280;18573;47.890;35.066;2022-12-19T06:51:42;102503.23;;;-2.52;100.00
32067;BME280;18573;47.890;35.066;2022-12-19T06:54:13;102514.10;;;-2.86;100.00
32067;BME280;18573;47.890;35.066;2022-12-19T06:56:43;102514.10;;;-2.86;100.00
32067;BME280;18573;47.890;35.066;2022-12-19T06:59:13;102525.26;;;-2.48;100.00
32067;BME280;18573;47.890;35.066;2022-12-19T07:01:57;102525.26;;;-2.48;100.00
32067;BME280;18573;47.890;35.066;2022-12-19T07:04:33;102526.26;;;-1.91;100.00
32067;BME280;18573;47.890;35.066;2022-12-19T07:07:02;102517.70;;;-2.19;100.00
32067;BME280;18573;47.890;35.066;2022-12-19T07:09:33;102529.47;;;-1.14;100.00
32067;BME280;18573;47.890;35.066;2022-12-19T07:12:03;102540.66;;;-1.83;100.00
32067;BME280;18573;47.890;35.066;2022-12-19T07:14:32;102540.66;;;-1.83;100.00
32067;BME280;18573;47.890;35.066;2022-12-19T07:17:02;102554.53;;;-1.40;100.00
32067;BME280;18573;47.890;35.066;2022-12-19T07:19:33;102540.83;;;-1.61;100.00
32067;BME280;18573;47.890;35.066;2022-12-19T07:22:03;102540.83;;;-1.61;100.00
32067;BME280;18573;47.890;35.066;2022-12-19T07:24:34;102558.53;;;-1.58;100.00
32067;BME280;18573;47.890;35.066;2022-12-19T07:27:06;102558.53;;;-1.58;100.00
32067;BME280;18573;47.890;35.066;2022-12-19T07:29:36;102546.97;;;-1.62;100.00
32067;BME280;18573;47.890;35.066;2022-12-19T07:32:05;102554.94;;;-0.17;100.00
32067;BME280;18573;47.890;35.066;2022-12-19T07:34:34;102543.03;;;0.27;100.00
32067;BME280;18573;47.890;35.066;2022-12-19T07:37:03;102543.03;;;0.27;100.00
32067;BME280;18573;47.890;35.066;2022-12-19T07:39:32;102563.41;;;2.11;100.00
32067;BME280;18573;47.890;35.066;2022-12-19T07:42:01;102561.74;;;2.96;100.00
32067;BME280;18573;47.890;35.066;2022-12-19T07:44:30;102569.28;;;2.53;100.00
32067;BME280;18573;47.890;35.066;2022-12-19T07:46:59;102569.28;;;2.53;100.00
32067;BME280;18573;47.890;35.066;2022-12-19T07:49:28;102580.19;;;2.23;100.00
32067;BME280;18573;47.890;35.066;2022-12-19T07:51:57;102580.19;;;2.23;100.00
32067;BME280;18573;47.890;35.066;2022-12-19T07:54:26;102587.78;;;1.57;100.00
32067;BME280;18573;47.890;35.066;2022-12-19T07:56:55;102584.16;;;3.09;100.00
32067;BME280;18573;47.890;35.066;2022-12-19T07:59:24;102591.23;;;2.66;98.19
32067;BME280;18573;47.890;35.066;2022-12-19T08:01:54;102595.50;;;2.18;96.53
32067;BME280;18573;47.890;35.066;2022-12-19T08:04:25;102593.36;;;2.61;96.69
32067;BME280;18573;47.890;35.066;2022-12-19T08:06:54;102598.77;;;1.43;100.00
32067;BME280;18573;47.890;35.066;2022-12-19T08:09:24;102604.38;;;1.51;100.00
32067;BME280;18573;47.890;35.066;2022-12-19T08:11:54;102602.72;;;1.23;100.00
32067;BME280;18573;47.890;35.066;2022-12-19T08:14:23;102603.50;;;0.13;100.00
32067;BME280;18573;47.890;35.066;2022-12-19T08:16:52;102593.28;;;0.30;100.00
32067;BME280;18573;47.890;35.066;2022-12-19T08:19:23;102593.28;;;0.30;100.00
32067;BME280;18573;47.890;35.066;2022-12-19T08:21:54;102595.77;;;-0.05;100.00
32067;BME280;18573;47.890;35.066;2022-12-19T08:24:23;102604.95;;;-0.26;100.00
32067;BME280;18573;47.890;35.066;2022-12-19T08:26:52;102597.03;;;0.11;100.00
32067;BME280;18573;47.890;35.066;2022-12-19T08:29:21;102598.95;;;-0.74;100.00
32067;BME280;18573;47.890;35.066;2022-12-19T08:31:50;102591.10;;;0.08;100.00
32067;BME280;18573;47.890;35.066;2022-12-19T08:34:19;102591.10;;;0.08;100.00
32067;BME280;18573;47.890;35.066;2022-12-19T08:36:48;102593.95;;;0.19;100.00
32067;BME280;18573;47.890;35.066;2022-12-19T08:39:17;102613.84;;;1.41;100.00
32067;BME280;18573;47.890;35.066;2022-12-19T08:41:46;102601.95;;;2.70;100.00
32067;BME280;18573;47.890;35.066;2022-12-19T08:44:15;102615.55;;;1.75;100.00
32067;BME280;18573;47.890;35.066;2022-12-19T08:46:44;102615.55;;;1.75;100.00
32067;BME280;18573;47.890;35.066;2022-12-19T08:49:15;102606.78;;;0.02;100.00
32067;BME280;18573;47.890;35.066;2022-12-19T08:51:44;102618.95;;;1.77;100.00
32067;BME280;18573;47.890;35.066;2022-12-19T08:54:13;102612.96;;;2.00;100.00
32067;BME280;18573;47.890;35.066;2022-12-19T08:56:42;102603.05;;;0.63;100.00
32067;BME280;18573;47.890;35.066;2022-12-19T08:59:14;102600.88;;;-0.32;100.00
32067;BME280;18573;47.890;35.066;2022-12-19T09:01:44;102613.75;;;-0.34;100.00
32067;BME280;18573;47.890;35.066;2022-12-19T09:04:14;102607.03;;;-0.47;100.00
32067;BME280;18573;47.890;35.066;2022-12-19T09:06:44;102620.08;;;-1.07;100.00
32067;BME280;18573;47.890;35.066;2022-12-19T09:09:13;102623.48;;;-0.66;100.00
32067;BME280;18573;47.890;35.066;2022-12-19T09:11:43;102613.31;;;-0.19;100.00
32067;BME280;18573;47.890;35.066;2022-12-19T09:14:13;102618.30;;;-0.15;100.00
32067;BME280;18573;47.890;35.066;2022-12-19T09:16:44;102618.30;;;-0.15;100.00
32067;BME280;18573;47.890;35.066;2022-12-19T09:19:13;102617.08;;;-0.46;100.00
32067;BME280;18573;47.890;35.066;2022-12-19T09:21:43;102609.34;;;0.11;100.00
32067;BME280;18573;47.890;35.066;2022-12-19T09:24:12;102616.30;;;2.22;100.00
32067;BME280;18573;47.890;35.066;2022-12-19T09:26:41;102602.58;;;2.17;99.33
32067;BME280;18573;47.890;35.066;2022-12-19T09:29:12;102602.58;;;2.17;99.33
32067;BME280;18573;47.890;35.066;2022-12-19T09:31:43;102609.81;;;2.83;94.86
32067;BME280;18573;47.890;35.066;2022-12-19T09:34:12;102611.23;;;2.76;93.38
32067;BME280;18573;47.890;35.066;2022-12-19T09:36:41;102610.46;;;4.05;87.85
32067;BME280;18573;47.890;35.066;2022-12-19T09:39:11;102612.91;;;2.77;90.43
32067;BME280;18573;47.890;35.066;2022-12-19T09:41:59;102619.34;;;3.52;88.36
32067;BME280;18573;47.890;35.066;2022-12-19T09:44:33;102625.98;;;4.04;84.00
32067;BME280;18573;47.890;35.066;2022-12-19T09:47:01;102629.21;;;3.32;81.12
32067;BME280;18573;47.890;35.066;2022-12-19T09:49:40;102616.82;;;2.40;84.23
32067;BME280;18573;47.890;35.066;2022-12-19T09:52:32;102616.82;;;2.40;84.23
32067;BME280;18573;47.890;35.066;2022-12-19T09:55:24;102603.78;;;2.75;83.98
32067;BME280;18573;47.890;35.066;2022-12-19T10:00:40;102608.22;;;3.65;82.08
32067;BME280;18573;47.890;35.066;2022-12-19T10:03:16;102606.38;;;3.07;77.76
32067;BME280;18573;47.890;35.066;2022-12-19T10:05:52;102604.97;;;3.14;80.83
32067;BME280;18573;47.890;35.066;2022-12-19T10:08:37;102595.87;;;2.99;84.77
32067;BME280;18573;47.890;35.066;2022-12-19T10:13:56;102606.52;;;3.35;81.16
32067;BME280;18573;47.890;35.066;2022-12-19T10:16:35;102586.66;;;2.50;82.97
32067;BME280;18573;47.890;35.066;2022-12-19T10:19:04;102586.66;;;2.50;82.97
32067;BME280;18573;47.890;35.066;2022-12-19T10:21:53;102604.46;;;0.47;99.16
32067;BME280;18573;47.890;35.066;2022-12-19T10:35:42;102602.77;;;0.11;100.00
32067;BME280;18573;47.890;35.066;2022-12-19T10:41:21;102612.39;;;-0.11;100.00
32067;BME280;18573;47.890;35.066;2022-12-19T10:43:59;102607.14;;;-0.41;100.00
32067;BME280;18573;47.890;35.066;2022-12-19T10:46:42;102611.18;;;-0.13;100.00
32067;BME280;18573;47.890;35.066;2022-12-19T10:49:26;102611.18;;;-0.13;100.00
32067;BME280;18573;47.890;35.066;2022-12-19T10:51:58;102613.70;;;-0.11;100.00
32067;BME280;18573;47.890;35.066;2022-12-19T10:54:38;102620.11;;;-0.38;100.00
32067;BME280;18573;47.890;35.066;2022-12-19T10:57:20;102622.41;;;-0.25;100.00
32067;BME280;18573;47.890;35.066;2022-12-19T11:05:22;102619.20;;;-0.30;100.00
32067;BME280;18573;47.890;35.066;2022-12-19T11:13:28;102625.33;;;-0.45;100.00
32067;BME280;18573;47.890;35.066;2022-12-19T11:16:02;102629.74;;;-0.46;100.00
32067;BME280;18573;47.890;35.066;2022-12-19T11:18:44;102624.96;;;-0.69;100.00
32067;BME280;18573;47.890;35.066;2022-12-19T11:21:24;102624.96;;;-0.69;100.00
32067;BME280;18573;47.890;35.066;2022-12-19T11:23:54;102618.91;;;-0.63;100.00
32067;BME280;18573;47.890;35.066;2022-12-19T11:29:26;102632.63;;;-0.58;100.00
32067;BME280;18573;47.890;35.066;2022-12-19T11:31:59;102636.72;;;-0.38;100.00
32067;BME280;18573;47.890;35.066;2022-12-19T11:34:32;102637.45;;;-0.43;100.00
32067;BME280;18573;47.890;35.066;2022-12-19T11:37:54;102647.66;;;-0.53;100.00
32067;BME280;18573;47.890;35.066;2022-12-19T11:40:09;102651.76;;;-0.56;100.00
32067;BME280;18573;47.890;35.066;2022-12-19T11:45:30;102661.14;;;-1.06;100.00
32067;BME280;18573;47.890;35.066;2022-12-19T11:48:02;102660.63;;;-0.81;100.00
32067;BME280;18573;47.890;35.066;2022-12-19T11:50:34;102660.63;;;-0.81;100.00
32067;BME280;18573;47.890;35.066;2022-12-19T11:53:18;102665.75;;;-0.87;100.00
32067;BME280;18573;47.890;35.066;2022-12-19T11:55:48;102671.26;;;-0.91;100.00
32067;BME280;18573;47.890;35.066;2022-12-19T11:58:18;102671.26;;;-0.91;100.00
32067;BME280;18573;47.890;35.066;2022-12-19T12:01:22;102671.81;;;-0.62;100.00
32067;BME280;18573;47.890;35.066;2022-12-19T12:03:58;102684.78;;;-0.74;100.00
32067;BME280;18573;47.890;35.066;2022-12-19T12:06:27;102683.19;;;-0.54;100.00
32067;BME280;18573;47.890;35.066;2022-12-19T12:17:39;102664.56;;;-0.81;100.00
32067;BME280;18573;47.890;35.066;2022-12-19T12:39:22;102703.43;;;-1.28;100.00
32067;BME280;18573;47.890;35.066;2022-12-19T12:42:05;102710.30;;;-1.25;100.00
32067;BME280;18573;47.890;35.066;2022-12-19T12:44:37;102702.28;;;-1.40;100.00
32067;BME280;18573;47.890;35.066;2022-12-19T12:49:59;102703.22;;;-1.41;100.00
32067;BME280;18573;47.890;35.066;2022-12-19T12:52:35;102701.74;;;-1.29;100.00
32067;BME280;18573;47.890;35.066;2022-12-19T12:55:14;102699.83;;;-1.34;100.00
32067;BME280;18573;47.890;35.066;2022-12-19T12:57:42;102702.96;;;-1.28;100.00
32067;BME280;18573;47.890;35.066;2022-12-19T13:00:32;102703.64;;;-1.48;100.00
32067;BME280;18573;47.890;35.066;2022-12-19T13:03:09;102703.64;;;-1.48;100.00
32067;BME280;18573;47.890;35.066;2022-12-19T13:08:31;102700.05;;;-1.30;100.00
32067;BME280;18573;47.890;35.066;2022-12-19T13:11:33;102698.74;;;-1.30;100.00
32067;BME280;18573;47.890;35.066;2022-12-19T13:13:54;102698.74;;;-1.30;100.00
32067;BME280;18573;47.890;35.066;2022-12-19T13:19:20;102714.53;;;-1.65;100.00
32067;BME280;18573;47.890;35.066;2022-12-19T13:24:46;102725.25;;;-1.69;100.00
32067;BME280;18573;47.890;35.066;2022-12-19T13:30:03;102733.59;;;-1.70;100.00
32067;BME280;18573;47.890;35.066;2022-12-19T13:38:00;102737.98;;;-1.88;100.00
32067;BME280;18573;47.890;35.066;2022-12-19T13:43:18;102745.23;;;-1.93;100.00
32067;BME280;18573;47.890;35.066;2022-12-19T13:46:49;102746.91;;;-2.00;100.00
32067;BME280;18573;47.890;35.066;2022-12-19T13:48:42;102747.45;;;-2.02;100.00
32067;BME280;18573;47.890;35.066;2022-12-19T13:51:13;102750.36;;;-2.09;100.00
32067;BME280;18573;47.890;35.066;2022-12-19T13:53:43;102761.30;;;-2.09;100.00
32067;BME280;18573;47.890;35.066;2022-12-19T13:56:15;102756.05;;;-2.18;100.00
32067;BME280;18573;47.890;35.066;2022-12-19T13:58:58;102767.21;;;-2.23;100.00
32067;BME280;18573;47.890;35.066;2022-12-19T14:01:33;102767.21;;;-2.23;100.00
32067;BME280;18573;47.890;35.066;2022-12-19T14:04:05;102757.11;;;-2.22;100.00
32067;BME280;18573;47.890;35.066;2022-12-19T14:06:45;102758.59;;;-2.25;100.00
32067;BME280;18573;47.890;35.066;2022-12-19T14:09:34;102768.00;;;-2.40;100.00
32067;BME280;18573;47.890;35.066;2022-12-19T14:12:11;102760.98;;;-2.39;100.00
32067;BME280;18573;47.890;35.066;2022-12-19T14:14:51;102767.78;;;-2.35;100.00
32067;BME280;18573;47.890;35.066;2022-12-19T14:17:32;102769.31;;;-2.40;100.00
32067;BME280;18573;47.890;35.066;2022-12-19T14:20:08;102768.94;;;-2.41;100.00
32067;BME280;18573;47.890;35.066;2022-12-19T14:22:35;102768.94;;;-2.41;100.00
32067;BME280;18573;47.890;35.066;2022-12-19T14:25:04;102757.62;;;-2.60;100.00
32067;BME280;18573;47.890;35.066;2022-12-19T14:27:38;102757.62;;;-2.60;100.00
32067;BME280;18573;47.890;35.066;2022-12-19T14:30:22;102765.23;;;-2.64;100.00
32067;BME280;18573;47.890;35.066;2022-12-19T14:32:56;102771.27;;;-2.72;100.00
32067;BME280;18573;47.890;35.066;2022-12-19T14:35:35;102774.44;;;-2.74;100.00
32067;BME280;18573;47.890;35.066;2022-12-19T14:38:03;102770.89;;;-2.73;100.00
32067;BME280;18573;47.890;35.066;2022-12-19T14:40:37;102779.20;;;-2.74;100.00
32067;BME280;18573;47.890;35.066;2022-12-19T14:43:16;102779.20;;;-2.74;100.00
32067;BME280;18573;47.890;35.066;2022-12-19T14:48:56;102777.91;;;-2.84;100.00